Time;durP1;ratioP1;P1;durP2;ratioP2;P2;SDS_P1;SDS_P2;PMS_P1;PMS_P2;Temp;Humidity;BMP_temperature;BMP_pressure;BME280_temperature;BME280_humidity;BME280_pressure;Samples;Min_cycle;Max_cycle;Signal;HPM_P1;HPM_P2
2023/10/04 00:01:38;;;;;;;1999.90;999.90;;;;;;;;;;6212368;23;20021;-82
2023/10/04 00:04:05;;;;;;;1999.90;999.90;;;;;;;;;;6212630;23;20400;-83
2023/10/04 00:06:32;;;;;;;1999.90;999.90;;;;;;;;;;6212351;23;20395;-83
2023/10/04 00:08:58;;;;;;;1999.90;999.90;;;;;;;;;;6212071;23;20024;-84
2023/10/04 00:11:26;;;;;;;1999.90;999.90;;;;;;;;;;6212307;23;20430;-82
2023/10/04 00:13:52;;;;;;;1999.90;999.90;;;;;;;;;;6212291;23;20055;-83
2023/10/04 00:16:19;;;;;;;1999.90;999.90;;;;;;;;;;6212047;23;20497;-83
2023/10/04 00:18:47;;;;;;;1999.90;999.90;;;;;;;;;;6212298;23;20021;-83
2023/10/04 00:21:13;;;;;;;1999.90;999.90;;;;;;;;;;6211741;23;20343;-83
2023/10/04 00:23:40;;;;;;;1999.90;999.90;;;;;;;;;;6212240;23;20027;-83
2023/10/04 00:26:08;;;;;;;1999.90;999.90;;;;;;;;;;6212091;23;20395;-83
2023/10/04 00:28:38;;;;;;;1999.90;999.90;;;;;;;;;;6211855;23;20026;-83
2023/10/04 00:31:05;;;;;;;1999.90;999.90;;;;;;;;;;6211834;23;20447;-83
2023/10/04 00:33:32;;;;;;;1999.90;999.90;;;;;;;;;;6212442;23;20023;-84
2023/10/04 00:36:04;;;;;;;1999.90;999.90;;;;;;;;;;6212421;23;20025;-83
2023/10/04 00:38:31;;;;;;;1999.90;999.90;;;;;;;;;;6211817;23;20020;-83
2023/10/04 00:40:58;;;;;;;1999.90;999.90;;;;;;;;;;6212456;23;20044;-83
2023/10/04 00:43:24;;;;;;;1999.90;999.90;;;;;;;;;;6211876;23;20429;-84
2023/10/04 00:45:51;;;;;;;1999.90;999.90;;;;;;;;;;6212672;23;20020;-83
2023/10/04 00:48:23;;;;;;;1999.90;999.90;;;;;;;;;;6211698;23;20024;-83
2023/10/04 00:50:51;;;;;;;1999.90;999.90;;;;;;;;;;6212393;23;20021;-83
2023/10/04 00:53:22;;;;;;;1999.90;999.90;;;;;;;;;;6211953;23;20340;-83
2023/10/04 00:55:50;;;;;;;1999.90;999.90;;;;;;;;;;6211837;23;20029;-84
2023/10/04 00:58:19;;;;;;;1999.90;999.90;;;;;;;;;;6212028;23;20513;-83
2023/10/04 01:00:48;;;;;;;1999.90;999.90;;;;;;;;;;6211937;23;20027;-84
2023/10/04 01:03:15;;;;;;;1999.90;999.90;;;;;;;;;;6211809;23;20399;-83
2023/10/04 01:05:46;;;;;;;1999.90;999.90;;;;;;;;;;6212184;23;20024;-83
2023/10/04 01:08:15;;;;;;;1999.90;999.90;;;;;;;;;;6211597;23;20021;-83
2023/10/04 01:10:44;;;;;;;1999.90;999.90;;;;;;;;;;6212096;23;20016;-84
2023/10/04 01:13:14;;;;;;;1999.90;999.90;;;;;;;;;;6211580;23;20459;-83
2023/10/04 01:15:41;;;;;;;1999.90;999.90;;;;;;;;;;6212082;23;20016;-83
2023/10/04 01:18:11;;;;;;;1999.90;999.90;;;;;;;;;;6211956;23;20020;-84
2023/10/04 01:20:39;;;;;;;1999.90;999.90;;;;;;;;;;6211575;23;20359;-83
2023/10/04 01:23:10;;;;;;;1999.90;999.90;;;;;;;;;;6211868;23;20025;-83
2023/10/04 01:25:38;;;;;;;1999.90;999.90;;;;;;;;;;6211534;23;20025;-83
2023/10/04 01:28:12;;;;;;;1999.90;999.90;;;;;;;;;;6211439;23;20352;-84
2023/10/04 01:30:38;;;;;;;1999.90;999.90;;;;;;;;;;6212002;23;20024;-83
2023/10/04 01:33:08;;;;;;;1999.90;999.90;;;;;;;;;;6211650;23;20024;-82
2023/10/04 01:35:34;;;;;;;1999.90;999.90;;;;;;;;;;6211687;23;20079;-82
2023/10/04 01:38:02;;;;;;;1999.90;999.90;;;;;;;;;;6211830;23;20020;-83
2023/10/04 01:40:32;;;;;;;1999.90;999.90;;;;;;;;;;6213256;23;20020;-83
2023/10/04 01:43:00;;;;;;;1999.90;999.90;;;;;;;;;;6214071;23;20020;-83
2023/10/04 01:45:27;;;;;;;1999.90;999.90;;;;;;;;;;6214041;23;20017;-83
2023/10/04 01:47:53;;;;;;;1999.90;999.90;;;;;;;;;;6213284;23;20461;-84
2023/10/04 01:50:20;;;;;;;1999.90;999.90;;;;;;;;;;6213564;23;20021;-84
2023/10/04 01:52:47;;;;;;;1999.90;999.90;;;;;;;;;;6213647;23;20017;-85
2023/10/04 01:55:16;;;;;;;1999.90;999.90;;;;;;;;;;6213583;23;20351;-85
2023/10/04 01:57:45;;;;;;;1999.90;999.90;;;;;;;;;;6213613;23;20137;-84
2023/10/04 02:00:16;;;;;;;1999.90;999.90;;;;;;;;;;6213726;23;20455;-84
2023/10/04 02:02:43;;;;;;;1999.90;999.90;;;;;;;;;;6213594;23;20075;-85
2023/10/04 02:05:12;;;;;;;1999.90;999.90;;;;;;;;;;6213019;23;20032;-84
2023/10/04 02:07:39;;;;;;;1999.90;999.90;;;;;;;;;;6213486;23;20441;-83
2023/10/04 02:10:13;;;;;;;1999.90;999.90;;;;;;;;;;6213928;23;20087;-85
2023/10/04 02:12:40;;;;;;;1999.90;999.90;;;;;;;;;;6213659;23;20046;-83
2023/10/04 02:15:14;;;;;;;1999.90;999.90;;;;;;;;;;6213034;23;20353;-83
2023/10/04 02:17:41;;;;;;;1999.90;999.90;;;;;;;;;;6213054;23;20076;-84
2023/10/04 02:20:10;;;;;;;1999.90;999.90;;;;;;;;;;6213191;23;20343;-85
2023/10/04 02:22:39;;;;;;;1999.90;999.90;;;;;;;;;;6213518;23;20029;-84
2023/10/04 02:25:07;;;;;;;1999.90;999.90;;;;;;;;;;6213486;23;20325;-84
2023/10/04 02:27:33;;;;;;;1999.90;999.90;;;;;;;;;;6212755;23;20075;-84
2023/10/04 02:30:11;;;;;;;1999.90;999.90;;;;;;;;;;6213311;23;20021;-84
2023/10/04 02:32:42;;;;;;;1999.90;999.90;;;;;;;;;;6213363;23;20074;-83
2023/10/04 02:35:10;;;;;;;1999.90;999.90;;;;;;;;;;6213432;23;20024;-84
2023/10/04 02:37:37;;;;;;;1999.90;999.90;;;;;;;;;;6213587;23;20095;-83
2023/10/04 02:40:14;;;;;;;1999.90;999.90;;;;;;;;;;6213212;23;20059;-85
2023/10/04 02:42:42;;;;;;;1999.90;999.90;;;;;;;;;;6213348;23;20020;-83
2023/10/04 02:45:12;;;;;;;1999.90;999.90;;;;;;;;;;6213152;23;20020;-83
2023/10/04 02:47:40;;;;;;;1999.90;999.90;;;;;;;;;;6212973;23;20095;-83
2023/10/04 02:50:10;;;;;;;1999.90;999.90;;;;;;;;;;6213286;23;20017;-84
2023/10/04 02:52:37;;;;;;;1999.90;999.90;;;;;;;;;;6213249;23;20448;-83
2023/10/04 02:55:05;;;;;;;1999.90;999.90;;;;;;;;;;6213374;23;20029;-83
2023/10/04 02:57:31;;;;;;;1999.90;999.90;;;;;;;;;;6213498;23;20025;-84
2023/10/04 02:59:58;;;;;;;1999.90;999.90;;;;;;;;;;6213186;23;20486;-84
2023/10/04 03:02:25;;;;;;;1999.90;999.90;;;;;;;;;;6212728;23;20099;-84
2023/10/04 03:04:53;;;;;;;1999.90;999.90;;;;;;;;;;6213190;23;20395;-83
2023/10/04 03:07:20;;;;;;;1999.90;999.90;;;;;;;;;;6213483;23;20020;-83
2023/10/04 03:09:47;;;;;;;1999.90;999.90;;;;;;;;;;6213109;23;20099;-84
2023/10/04 03:12:15;;;;;;;1999.90;999.90;;;;;;;;;;6213157;23;20021;-83
2023/10/04 03:14:42;;;;;;;1999.90;999.90;;;;;;;;;;6213043;23;20366;-84
2023/10/04 03:17:10;;;;;;;1999.90;999.90;;;;;;;;;;6212560;23;20024;-84
2023/10/04 03:19:37;;;;;;;1999.90;999.90;;;;;;;;;;6212552;23;20032;-83
2023/10/04 03:22:06;;;;;;;1999.90;999.90;;;;;;;;;;6213376;23;20024;-84
2023/10/04 03:24:32;;;;;;;1999.90;999.90;;;;;;;;;;6214859;23;20021;-83
2023/10/04 03:26:59;;;;;;;1999.90;999.90;;;;;;;;;;6212752;23;20031;-84
2023/10/04 03:29:28;;;;;;;1999.90;999.90;;;;;;;;;;6212968;23;20042;-84
2023/10/04 03:31:54;;;;;;;1999.90;999.90;;;;;;;;;;6212643;23;20029;-83
2023/10/04 03:34:22;;;;;;;1999.90;999.90;;;;;;;;;;6212793;23;20459;-84
2023/10/04 03:36:49;;;;;;;1999.90;999.90;;;;;;;;;;6213311;23;20024;-84
2023/10/04 03:39:17;;;;;;;1999.90;999.90;;;;;;;;;;6213009;23;20099;-83
2023/10/04 03:41:46;;;;;;;1999.90;999.90;;;;;;;;;;6212517;23;20023;-84
2023/10/04 03:44:13;;;;;;;1999.90;999.90;;;;;;;;;;6212722;23;20040;-84
2023/10/04 03:46:40;;;;;;;1999.90;999.90;;;;;;;;;;6212729;23;20035;-83
2023/10/04 03:49:06;;;;;;;1999.90;999.90;;;;;;;;;;6212583;23;20448;-84
2023/10/04 03:51:33;;;;;;;1999.90;999.90;;;;;;;;;;6213006;23;20104;-84
2023/10/04 03:54:05;;;;;;;1999.90;999.90;;;;;;;;;;6212692;23;20017;-83
2023/10/04 03:56:33;;;;;;;1999.90;999.90;;;;;;;;;;6212458;23;20108;-83
2023/10/04 03:59:00;;;;;;;1999.90;999.90;;;;;;;;;;6212718;23;20025;-84
2023/10/04 04:01:27;;;;;;;1999.90;999.90;;;;;;;;;;6212433;23;20021;-83
2023/10/04 04:03:53;;;;;;;1999.90;999.90;;;;;;;;;;6212407;23;20024;-83
2023/10/04 04:06:20;;;;;;;1999.90;999.90;;;;;;;;;;6212657;23;20099;-83
2023/10/04 04:08:47;;;;;;;1999.90;999.90;;;;;;;;;;6212377;23;20071;-84
2023/10/04 04:11:14;;;;;;;1999.90;999.90;;;;;;;;;;6212875;23;20025;-84
2023/10/04 04:13:47;;;;;;;1999.90;999.90;;;;;;;;;;6214034;23;20035;-83
2023/10/04 04:16:17;;;;;;;1999.90;999.90;;;;;;;;;;6213878;23;20071;-84
2023/10/04 04:18:47;;;;;;;1999.90;999.90;;;;;;;;;;6214165;23;20091;-83
2023/10/04 04:21:14;;;;;;;1999.90;999.90;;;;;;;;;;6213559;23;20486;-84
2023/10/04 04:23:40;;;;;;;1999.90;999.90;;;;;;;;;;6214757;23;20024;-84
2023/10/04 04:26:08;;;;;;;1999.90;999.90;;;;;;;;;;6213940;23;20025;-84
2023/10/04 04:28:36;;;;;;;1999.90;999.90;;;;;;;;;;6214683;23;20099;-84
2023/10/04 04:31:14;;;;;;;1999.90;999.90;;;;;;;;;;6214660;23;20025;-79
2023/10/04 04:33:41;;;;;;;1999.90;999.90;;;;;;;;;;6216227;23;20023;-82
2023/10/04 04:36:09;;;;;;;1999.90;999.90;;;;;;;;;;6215533;23;20424;-82
2023/10/04 04:38:38;;;;;;;1999.90;999.90;;;;;;;;;;6215293;23;20025;-82
2023/10/04 04:41:12;;;;;;;1999.90;999.90;;;;;;;;;;6215481;23;20105;-83
2023/10/04 04:43:39;;;;;;;1999.90;999.90;;;;;;;;;;6216182;23;20343;-84
2023/10/04 04:46:09;;;;;;;1999.90;999.90;;;;;;;;;;6215865;23;20443;-84
2023/10/04 04:48:37;;;;;;;1999.90;999.90;;;;;;;;;;6215488;23;20473;-83
2023/10/04 04:51:10;;;;;;;1999.90;999.90;;;;;;;;;;6217146;23;20020;-84
2023/10/04 04:53:39;;;;;;;1999.90;999.90;;;;;;;;;;6216210;23;20017;-83
2023/10/04 04:56:06;;;;;;;1999.90;999.90;;;;;;;;;;6215110;23;20024;-83
2023/10/04 04:58:33;;;;;;;1999.90;999.90;;;;;;;;;;6213715;23;20028;-84
2023/10/04 05:01:02;;;;;;;1999.90;999.90;;;;;;;;;;6214724;23;20079;-83
2023/10/04 05:03:30;;;;;;;1999.90;999.90;;;;;;;;;;6213852;23;20017;-83
2023/10/04 05:05:57;;;;;;;1999.90;999.90;;;;;;;;;;6214513;23;20103;-83
2023/10/04 05:08:25;;;;;;;1999.90;999.90;;;;;;;;;;6214573;23;20099;-84
2023/10/04 05:10:54;;;;;;;1999.90;999.90;;;;;;;;;;6214999;23;20017;-85
2023/10/04 05:13:21;;;;;;;1999.90;999.90;;;;;;;;;;6214638;23;20020;-83
2023/10/04 05:15:49;;;;;;;1999.90;999.90;;;;;;;;;;6214386;23;20020;-83
2023/10/04 05:18:17;;;;;;;1999.90;999.90;;;;;;;;;;6214530;23;20028;-83
2023/10/04 05:20:45;;;;;;;1999.90;999.90;;;;;;;;;;6213545;23;20052;-84
2023/10/04 05:23:12;;;;;;;1999.90;999.90;;;;;;;;;;6212277;23;20021;-84
2023/10/04 05:25:38;;;;;;;1999.90;999.90;;;;;;;;;;6213003;23;20024;-85
2023/10/04 05:28:06;;;;;;;1999.90;999.90;;;;;;;;;;6211972;23;20021;-83
2023/10/04 05:30:33;;;;;;;1999.90;999.90;;;;;;;;;;6211591;23;20112;-84
2023/10/04 05:33:01;;;;;;;1999.90;999.90;;;;;;;;;;6211401;23;20020;-83
2023/10/04 05:35:28;;;;;;;1999.90;999.90;;;;;;;;;;6211322;23;20527;-84
2023/10/04 05:37:56;;;;;;;1999.90;999.90;;;;;;;;;;6211411;23;20780;-84
2023/10/04 05:40:27;;;;;;;1999.90;999.90;;;;;;;;;;6212115;23;20029;-83
2023/10/04 05:42:54;;;;;;;1999.90;999.90;;;;;;;;;;6211406;23;20047;-84
2023/10/04 05:45:21;;;;;;;1999.90;999.90;;;;;;;;;;6211869;23;20432;-84
2023/10/04 05:47:48;;;;;;;1999.90;999.90;;;;;;;;;;6211846;23;20017;-83
2023/10/04 05:50:17;;;;;;;1999.90;999.90;;;;;;;;;;6210650;23;20020;-84
2023/10/04 05:52:44;;;;;;;1999.90;999.90;;;;;;;;;;6211533;23;20324;-83
2023/10/04 05:55:13;;;;;;;1999.90;999.90;;;;;;;;;;6212294;23;20020;-83
2023/10/04 05:57:39;;;;;;;1999.90;999.90;;;;;;;;;;6212330;23;20044;-86
2023/10/04 06:00:22;;;;;;;1999.90;999.90;;;;;;;;;;6212496;23;20028;-87
2023/10/04 06:02:50;;;;;;;1999.90;999.90;;;;;;;;;;6211774;23;20020;-86
2023/10/04 06:05:19;;;;;;;1999.90;999.90;;;;;;;;;;6212082;23;20425;-87
2023/10/04 06:07:46;;;;;;;1999.90;999.90;;;;;;;;;;6212192;23;20502;-86
2023/10/04 06:10:15;;;;;;;1999.90;999.90;;;;;;;;;;6212826;23;20020;-86
2023/10/04 06:12:42;;;;;;;1999.90;999.90;;;;;;;;;;6211827;23;20020;-86
2023/10/04 06:15:13;;;;;;;1999.90;999.90;;;;;;;;;;6211685;23;20020;-87
2023/10/04 06:17:42;;;;;;;1999.90;999.90;;;;;;;;;;6212451;23;20340;-86
2023/10/04 06:20:24;;;;;;;1999.90;999.90;;;;;;;;;;6212465;23;20031;-88
2023/10/04 06:22:52;;;;;;;1999.90;999.90;;;;;;;;;;6212488;23;20343;-85
2023/10/04 06:25:22;;;;;;;1999.90;999.90;;;;;;;;;;6212071;23;20047;-85
2023/10/04 06:27:50;;;;;;;1999.90;999.90;;;;;;;;;;6214376;23;20100;-86
2023/10/04 06:30:20;;;;;;;1999.90;999.90;;;;;;;;;;6213721;23;20027;-85
2023/10/04 06:32:47;;;;;;;1999.90;999.90;;;;;;;;;;6213448;23;20044;-85
2023/10/04 06:35:14;;;;;;;1999.90;999.90;;;;;;;;;;6213717;23;20035;-85
2023/10/04 06:37:40;;;;;;;1999.90;999.90;;;;;;;;;;6213329;23;20355;-84
2023/10/04 06:40:15;;;;;;;1999.90;999.90;;;;;;;;;;6213634;23;20052;-86
2023/10/04 06:42:44;;;;;;;1999.90;999.90;;;;;;;;;;6213693;23;20332;-85
2023/10/04 06:45:13;;;;;;;1999.90;999.90;;;;;;;;;;6213720;23;20462;-85
2023/10/04 06:47:41;;;;;;;1999.90;999.90;;;;;;;;;;6213657;23;20028;-86
2023/10/04 06:50:09;;;;;;;1999.90;999.90;;;;;;;;;;6212925;23;20016;-85
2023/10/04 06:52:36;;;;;;;1999.90;999.90;;;;;;;;;;6213204;23;20317;-85
2023/10/04 06:55:04;;;;;;;1999.90;999.90;;;;;;;;;;6213442;23;20094;-86
2023/10/04 06:57:31;;;;;;;1999.90;999.90;;;;;;;;;;6213601;23;20021;-85
2023/10/04 07:00:00;;;;;;;1999.90;999.90;;;;;;;;;;6213166;23;20384;-87
2023/10/04 07:02:27;;;;;;;1999.90;999.90;;;;;;;;;;6213874;23;20032;-86
2023/10/04 07:04:53;;;;;;;1999.90;999.90;;;;;;;;;;6213529;23;20029;-86
2023/10/04 07:07:20;;;;;;;1999.90;999.90;;;;;;;;;;6213249;23;20063;-85
2023/10/04 07:09:47;;;;;;;1999.90;999.90;;;;;;;;;;6212998;23;20444;-86
2023/10/04 07:12:14;;;;;;;1999.90;999.90;;;;;;;;;;6213502;23;20037;-85
2023/10/04 07:14:41;;;;;;;1999.90;999.90;;;;;;;;;;6213238;23;20024;-85
2023/10/04 07:17:09;;;;;;;1999.90;999.90;;;;;;;;;;6213684;23;20392;-86
2023/10/04 07:19:37;;;;;;;1999.90;999.90;;;;;;;;;;6212903;23;20021;-86
2023/10/04 07:22:03;;;;;;;1999.90;999.90;;;;;;;;;;6213437;23;20024;-88
2023/10/04 07:24:32;;;;;;;1999.90;999.90;;;;;;;;;;6213241;23;20071;-86
2023/10/04 07:26:59;;;;;;;1999.90;999.90;;;;;;;;;;6213165;23;20024;-86
2023/10/04 07:29:26;;;;;;;1999.90;999.90;;;;;;;;;;6212831;23;20026;-86
2023/10/04 07:31:53;;;;;;;1999.90;999.90;;;;;;;;;;6213273;23;20128;-86
2023/10/04 07:34:23;;;;;;;1999.90;999.90;;;;;;;;;;6212880;23;20772;-86
2023/10/04 07:36:51;;;;;;;1999.90;999.90;;;;;;;;;;6212850;23;20055;-86
2023/10/04 07:39:21;;;;;;;1999.90;999.90;;;;;;;;;;6213075;23;20087;-86
2023/10/04 07:41:47;;;;;;;1999.90;999.90;;;;;;;;;;6212891;23;20023;-86
2023/10/04 07:44:14;;;;;;;1999.90;999.90;;;;;;;;;;6213015;23;20017;-85
2023/10/04 07:46:42;;;;;;;1999.90;999.90;;;;;;;;;;6213108;23;20016;-85
2023/10/04 07:49:09;;;;;;;1999.90;999.90;;;;;;;;;;6212823;23;20025;-86
2023/10/04 07:51:37;;;;;;;1999.90;999.90;;;;;;;;;;6212836;23;20106;-86
2023/10/04 07:54:07;;;;;;;1999.90;999.90;;;;;;;;;;6213203;23;20021;-87
2023/10/04 07:56:34;;;;;;;1999.90;999.90;;;;;;;;;;6213081;23;20104;-87
2023/10/04 07:59:01;;;;;;;1999.90;999.90;;;;;;;;;;6212305;23;20539;-87
2023/10/04 08:01:28;;;;;;;1999.90;999.90;;;;;;;;;;6212822;23;20024;-88
2023/10/04 08:03:55;;;;;;;1999.90;999.90;;;;;;;;;;6212746;23;20020;-87
2023/10/04 08:06:22;;;;;;;1999.90;999.90;;;;;;;;;;6212742;23;20111;-87
2023/10/04 08:08:50;;;;;;;1999.90;999.90;;;;;;;;;;6212671;23;20355;-87
2023/10/04 08:11:16;;;;;;;1999.90;999.90;;;;;;;;;;6212594;23;20031;-86
2023/10/04 08:13:43;;;;;;;1999.90;999.90;;;;;;;;;;6213043;23;20016;-86
2023/10/04 08:16:10;;;;;;;1999.90;999.90;;;;;;;;;;6212582;23;20355;-85
2023/10/04 08:18:37;;;;;;;1999.90;999.90;;;;;;;;;;6212690;23;20184;-86
2023/10/04 08:21:07;;;;;;;1999.90;999.90;;;;;;;;;;6212861;23;20031;-87
2023/10/04 08:23:33;;;;;;;1999.90;999.90;;;;;;;;;;6212483;23;20021;-86
2023/10/04 08:26:02;;;;;;;1999.90;999.90;;;;;;;;;;6212720;23;20047;-87
2023/10/04 08:28:29;;;;;;;1999.90;999.90;;;;;;;;;;6212493;23;20020;-87
2023/10/04 08:30:56;;;;;;;1999.90;999.90;;;;;;;;;;6212723;23;20024;-86
2023/10/04 08:33:31;;;;;;;1999.90;999.90;;;;;;;;;;6212856;23;20021;-87
2023/10/04 08:35:58;;;;;;;1999.90;999.90;;;;;;;;;;6212392;23;20131;-87
2023/10/04 08:38:25;;;;;;;1999.90;999.90;;;;;;;;;;6212303;23;20020;-87
2023/10/04 08:40:53;;;;;;;1999.90;999.90;;;;;;;;;;6212327;23;20430;-88
2023/10/04 08:43:21;;;;;;;1999.90;999.90;;;;;;;;;;6212510;23;20474;-87
2023/10/04 08:45:47;;;;;;;1999.90;999.90;;;;;;;;;;6212295;23;20017;-86
2023/10/04 08:48:14;;;;;;;1999.90;999.90;;;;;;;;;;6212233;23;20436;-87
2023/10/04 08:50:49;;;;;;;1999.90;999.90;;;;;;;;;;6211869;23;20021;-85
2023/10/04 08:53:25;;;;;;;1999.90;999.90;;;;;;;;;;6212413;23;20336;-86
2023/10/04 08:55:54;;;;;;;1999.90;999.90;;;;;;;;;;6212665;23;20339;-86
2023/10/04 08:58:22;;;;;;;1999.90;999.90;;;;;;;;;;6212578;23;20139;-86
2023/10/04 09:00:50;;;;;;;1999.90;999.90;;;;;;;;;;6213109;23;20123;-84
2023/10/04 09:03:17;;;;;;;1999.90;999.90;;;;;;;;;;6212853;23;20038;-86
2023/10/04 09:05:46;;;;;;;1999.90;999.90;;;;;;;;;;6213320;23;20031;-87
2023/10/04 09:08:15;;;;;;;1999.90;999.90;;;;;;;;;;6213222;23;20020;-87
2023/10/04 09:10:42;;;;;;;1999.90;999.90;;;;;;;;;;6212921;23;20432;-87
2023/10/04 09:13:10;;;;;;;1999.90;999.90;;;;;;;;;;6212698;23;20021;-88
2023/10/04 09:15:38;;;;;;;1999.90;999.90;;;;;;;;;;6212376;23;20025;-88
2023/10/04 09:18:07;;;;;;;1999.90;999.90;;;;;;;;;;6213153;23;20510;-88
2023/10/04 09:20:34;;;;;;;1999.90;999.90;;;;;;;;;;6212601;23;20428;-87
2023/10/04 09:23:02;;;;;;;1999.90;999.90;;;;;;;;;;6212916;23;20052;-89
2023/10/04 09:25:36;;;;;;;1999.90;999.90;;;;;;;;;;6212172;23;20024;-87
2023/10/04 09:28:04;;;;;;;1999.90;999.90;;;;;;;;;;6212281;23;20313;-88
2023/10/04 09:30:33;;;;;;;1999.90;999.90;;;;;;;;;;6212456;23;20047;-88
2023/10/04 09:33:04;;;;;;;1999.90;999.90;;;;;;;;;;6211663;23;20471;-89
2023/10/04 09:35:41;;;;;;;1999.90;999.90;;;;;;;;;;6212917;23;20020;-86
2023/10/04 09:38:15;;;;;;;1999.90;999.90;;;;;;;;;;6211891;23;20021;-89
2023/10/04 09:40:50;;;;;;;1999.90;999.90;;;;;;;;;;6211700;23;20056;-88
2023/10/04 09:43:17;;;;;;;1999.90;999.90;;;;;;;;;;6212168;23;20059;-86
2023/10/04 09:45:56;;;;;;;1999.90;999.90;;;;;;;;;;6211547;23;20031;-88
2023/10/04 09:48:25;;;;;;;1999.90;999.90;;;;;;;;;;6211891;23;20028;-87
2023/10/04 09:50:59;;;;;;;1999.90;999.90;;;;;;;;;;6211816;23;20095;-88
2023/10/04 09:53:25;;;;;;;1999.90;999.90;;;;;;;;;;6211600;23;20031;-87
2023/10/04 09:55:54;;;;;;;1999.90;999.90;;;;;;;;;;6211968;23;20068;-88
2023/10/04 09:58:23;;;;;;;1999.90;999.90;;;;;;;;;;6211831;23;20460;-89
2023/10/04 10:00:50;;;;;;;1999.90;999.90;;;;;;;;;;6212870;23;20443;-87
2023/10/04 10:03:19;;;;;;;1999.90;999.90;;;;;;;;;;6213555;23;20619;-87
2023/10/04 10:05:48;;;;;;;1999.90;999.90;;;;;;;;;;6214300;23;20048;-86
2023/10/04 10:08:14;;;;;;;1999.90;999.90;;;;;;;;;;6213329;23;20518;-85
2023/10/04 10:10:42;;;;;;;1999.90;999.90;;;;;;;;;;6213965;23;20025;-85
2023/10/04 10:13:09;;;;;;;1999.90;999.90;;;;;;;;;;6213541;23;20434;-87
2023/10/04 10:15:37;;;;;;;1999.90;999.90;;;;;;;;;;6213380;23;20288;-86
2023/10/04 10:18:07;;;;;;;1999.90;999.90;;;;;;;;;;6214123;23;20027;-87
2023/10/04 10:20:33;;;;;;;1999.90;999.90;;;;;;;;;;6214118;23;20029;-86
2023/10/04 10:23:13;;;;;;;1999.90;999.90;;;;;;;;;;6213539;23;20028;-85
2023/10/04 10:25:41;;;;;;;1999.90;999.90;;;;;;;;;;6213949;23;20100;-86
2023/10/04 10:28:19;;;;;;;1999.90;999.90;;;;;;;;;;6213523;23;20475;-85
2023/10/04 10:30:46;;;;;;;1999.90;999.90;;;;;;;;;;6213893;23;20044;-87
2023/10/04 10:33:13;;;;;;;1999.90;999.90;;;;;;;;;;6213659;23;20478;-86
2023/10/04 10:35:53;;;;;;;1999.90;999.90;;;;;;;;;;6213372;23;20032;-86
2023/10/04 10:38:31;;;;;;;1999.90;999.90;;;;;;;;;;6213494;23;20052;-86
2023/10/04 10:40:58;;;;;;;1999.90;999.90;;;;;;;;;;6213631;23;20035;-85
2023/10/04 10:43:24;;;;;;;1999.90;999.90;;;;;;;;;;6213481;23;20023;-84
2023/10/04 10:45:51;;;;;;;1999.90;999.90;;;;;;;;;;6213539;23;20366;-85
2023/10/04 10:48:17;;;;;;;1999.90;999.90;;;;;;;;;;6213519;23;20104;-85
2023/10/04 10:50:44;;;;;;;1999.90;999.90;;;;;;;;;;6213270;23;20485;-84
2023/10/04 10:53:11;;;;;;;1999.90;999.90;;;;;;;;;;6213671;23;20024;-86
2023/10/04 10:55:40;;;;;;;1999.90;999.90;;;;;;;;;;6213618;23;20367;-86
2023/10/04 10:58:07;;;;;;;1999.90;999.90;;;;;;;;;;6213688;23;20020;-86
2023/10/04 11:00:34;;;;;;;1999.90;999.90;;;;;;;;;;6213484;23;20031;-85
2023/10/04 11:03:02;;;;;;;1999.90;999.90;;;;;;;;;;6212982;23;20383;-86
2023/10/04 11:05:29;;;;;;;1999.90;999.90;;;;;;;;;;6212843;23;20021;-86
2023/10/04 11:07:56;;;;;;;1999.90;999.90;;;;;;;;;;6213555;23;20381;-85
2023/10/04 11:10:24;;;;;;;1999.90;999.90;;;;;;;;;;6213036;23;20103;-86
2023/10/04 11:12:54;;;;;;;1999.90;999.90;;;;;;;;;;6213101;23;20402;-87
2023/10/04 11:15:23;;;;;;;1999.90;999.90;;;;;;;;;;6213445;23;20478;-85
2023/10/04 11:17:50;;;;;;;1999.90;999.90;;;;;;;;;;6213255;23;20055;-87
2023/10/04 11:20:18;;;;;;;1999.90;999.90;;;;;;;;;;6213501;23;20016;-88
2023/10/04 11:22:45;;;;;;;1999.90;999.90;;;;;;;;;;6213705;23;20016;-84
2023/10/04 11:25:13;;;;;;;1999.90;999.90;;;;;;;;;;6212957;23;20044;-86
2023/10/04 11:27:43;;;;;;;1999.90;999.90;;;;;;;;;;6212877;23;20021;-86
2023/10/04 11:30:13;;;;;;;1999.90;999.90;;;;;;;;;;6212779;23;20025;-83
2023/10/04 11:32:41;;;;;;;1999.90;999.90;;;;;;;;;;6212841;23;20468;-86
2023/10/04 11:35:11;;;;;;;1999.90;999.90;;;;;;;;;;6212642;23;20102;-88
2023/10/04 11:37:43;;;;;;;1999.90;999.90;;;;;;;;;;6213078;23;20098;-86
2023/10/04 11:40:13;;;;;;;1999.90;999.90;;;;;;;;;;6212919;23;20071;-86
2023/10/04 11:42:40;;;;;;;1999.90;999.90;;;;;;;;;;6213003;23;20501;-86
2023/10/04 11:45:24;;;;;;;1999.90;999.90;;;;;;;;;;6213205;23;20402;-85
2023/10/04 11:48:00;;;;;;;1999.90;999.90;;;;;;;;;;6209949;23;20025;-87
2023/10/04 11:50:42;;;;;;;1999.90;999.90;;;;;;;;;;6212948;23;20020;-85
2023/10/04 11:53:11;;;;;;;1999.90;999.90;;;;;;;;;;6212847;23;20031;-87
2023/10/04 11:55:38;;;;;;;1999.90;999.90;;;;;;;;;;6213018;23;20025;-86
2023/10/04 11:58:05;;;;;;;1999.90;999.90;;;;;;;;;;6212659;23;20020;-85
2023/10/04 12:00:33;;;;;;;1999.90;999.90;;;;;;;;;;6212525;23;20020;-85
2023/10/04 12:03:00;;;;;;;1999.90;999.90;;;;;;;;;;6212155;23;20466;-85
2023/10/04 12:05:26;;;;;;;1999.90;999.90;;;;;;;;;;6212703;23;20020;-85
2023/10/04 12:07:54;;;;;;;1999.90;999.90;;;;;;;;;;6212634;23;20016;-85
2023/10/04 12:10:22;;;;;;;1999.90;999.90;;;;;;;;;;6212870;23;20025;-86
2023/10/04 12:12:48;;;;;;;1999.90;999.90;;;;;;;;;;6212575;23;20059;-89
2023/10/04 12:15:15;;;;;;;1999.90;999.90;;;;;;;;;;6212661;23;20031;-87
2023/10/04 12:17:45;;;;;;;1999.90;999.90;;;;;;;;;;6212522;23;20095;-82
2023/10/04 12:20:12;;;;;;;1999.90;999.90;;;;;;;;;;6212645;23;20079;-84
2023/10/04 12:22:39;;;;;;;1999.90;999.90;;;;;;;;;;6212554;23;20481;-85
2023/10/04 12:25:06;;;;;;;1999.90;999.90;;;;;;;;;;6211798;23;20537;-89
2023/10/04 12:27:33;;;;;;;1999.90;999.90;;;;;;;;;;6212772;23;20079;-88
2023/10/04 12:29:59;;;;;;;1999.90;999.90;;;;;;;;;;6212466;23;20336;-84
2023/10/04 12:32:26;;;;;;;1999.90;999.90;;;;;;;;;;6212270;23;20260;-86
2023/10/04 12:34:54;;;;;;;1999.90;999.90;;;;;;;;;;6212456;23;20333;-89
2023/10/04 12:37:20;;;;;;;1999.90;999.90;;;;;;;;;;6212521;23;20029;-88
2023/10/04 12:39:47;;;;;;;1999.90;999.90;;;;;;;;;;6212411;23;20020;-85
2023/10/04 12:42:14;;;;;;;1999.90;999.90;;;;;;;;;;6212563;23;20028;-86
2023/10/04 12:44:41;;;;;;;1999.90;999.90;;;;;;;;;;6212476;23;20096;-89
2023/10/04 12:47:08;;;;;;;1999.90;999.90;;;;;;;;;;6212496;23;20059;-89
2023/10/04 12:49:35;;;;;;;1999.90;999.90;;;;;;;;;;6212499;23;20079;-88
2023/10/04 12:52:04;;;;;;;1999.90;999.90;;;;;;;;;;6212707;23;20021;-87
2023/10/04 12:54:31;;;;;;;1999.90;999.90;;;;;;;;;;6212097;23;20021;-86
2023/10/04 12:56:57;;;;;;;1999.90;999.90;;;;;;;;;;6211813;23;20513;-85
2023/10/04 12:59:24;;;;;;;1999.90;999.90;;;;;;;;;;6212302;23;20227;-86
2023/10/04 13:01:53;;;;;;;1999.90;999.90;;;;;;;;;;6212331;23;20091;-84
2023/10/04 13:04:20;;;;;;;1999.90;999.90;;;;;;;;;;6212182;23;20024;-86
2023/10/04 13:06:46;;;;;;;1999.90;999.90;;;;;;;;;;6212516;23;20048;-85
2023/10/04 13:09:19;;;;;;;1999.90;999.90;;;;;;;;;;6212428;23;20021;-87
2023/10/04 13:11:46;;;;;;;1999.90;999.90;;;;;;;;;;6212328;23;20025;-86
2023/10/04 13:14:13;;;;;;;1999.90;999.90;;;;;;;;;;6212171;23;20075;-87
2023/10/04 13:16:39;;;;;;;1999.90;999.90;;;;;;;;;;6211870;23;20024;-86
2023/10/04 13:19:06;;;;;;;1999.90;999.90;;;;;;;;;;6211833;23;20020;-87
2023/10/04 13:21:32;;;;;;;1999.90;999.90;;;;;;;;;;6212270;23;20024;-90
2023/10/04 13:23:59;;;;;;;1999.90;999.90;;;;;;;;;;6212218;23;20530;-86
2023/10/04 13:26:27;;;;;;;1999.90;999.90;;;;;;;;;;6211803;23;20032;-89
2023/10/04 13:28:54;;;;;;;1999.90;999.90;;;;;;;;;;6212000;23;20021;-87
2023/10/04 13:31:22;;;;;;;1999.90;999.90;;;;;;;;;;6212354;23;20103;-91
2023/10/04 13:33:48;;;;;;;1999.90;999.90;;;;;;;;;;6213951;23;20036;-91
2023/10/04 13:36:15;;;;;;;1999.90;999.90;;;;;;;;;;6216141;23;20099;-86
2023/10/04 13:38:42;;;;;;;1999.90;999.90;;;;;;;;;;6215338;23;20047;-87
2023/10/04 13:41:13;;;;;;;1999.90;999.90;;;;;;;;;;6215861;23;20446;-87
2023/10/04 13:43:41;;;;;;;1999.90;999.90;;;;;;;;;;6215444;23;20359;-87
2023/10/04 13:46:08;;;;;;;1999.90;999.90;;;;;;;;;;6218051;23;20017;-89
2023/10/04 13:48:38;;;;;;;1999.90;999.90;;;;;;;;;;6217219;23;20075;-88